createdAt,value
2018-01-03T00:00:02.330Z,85.91
2018-01-03T00:01:02.304Z,87.43
2018-01-03T00:02:02.291Z,86.86
2018-01-03T00:03:02.263Z,87.05
2018-01-03T00:04:02.240Z,86.19
2018-01-03T00:05:02.231Z,86.29
2018-01-03T00:06:02.202Z,86.19
2018-01-03T00:07:02.180Z,86.86
2018-01-03T00:08:02.165Z,86.19
2018-01-03T00:09:02.137Z,86.47
2018-01-03T00:10:02.123Z,86.47
2018-01-03T00:11:02.108Z,86.57
2018-01-03T00:12:02.076Z,86.29
2018-01-03T00:13:02.054Z,86.47
2018-01-03T00:14:02.028Z,86.57
2018-01-03T00:15:02.011Z,86.38
2018-01-03T00:16:01.989Z,86.47
2018-01-03T00:17:01.970Z,85.91
2018-01-03T00:18:01.950Z,86.10
2018-01-03T00:19:01.939Z,85.81
2018-01-03T00:20:01.911Z,86.00
2018-01-03T00:21:01.890Z,86.00
2018-01-03T00:22:01.872Z,85.81
2018-01-03T00:23:01.845Z,86.29
2018-01-03T00:24:01.833Z,86.67
2018-01-03T00:25:01.807Z,86.10
2018-01-03T00:26:01.800Z,86.10
2018-01-03T00:27:01.763Z,86.29
2018-01-03T00:28:01.756Z,85.72
2018-01-03T00:29:01.719Z,86.00
2018-01-03T00:30:01.696Z,86.19
2018-01-03T00:31:01.678Z,86.00
2018-01-03T00:32:01.658Z,85.53
2018-01-03T00:33:01.638Z,86.29
2018-01-03T00:34:01.614Z,86.00
2018-01-03T00:35:01.595Z,85.72
2018-01-03T00:36:01.584Z,86.29
2018-01-03T00:37:01.555Z,85.34
2018-01-03T00:38:01.541Z,85.34
2018-01-03T00:39:01.513Z,85.91
2018-01-03T00:40:01.494Z,86.29
2018-01-03T00:41:01.468Z,85.91
2018-01-03T00:42:01.450Z,85.91
2018-01-03T00:43:01.428Z,85.91
2018-01-03T00:44:01.409Z,86.00
2018-01-03T00:45:01.389Z,85.91
2018-01-03T00:46:01.375Z,85.72
2018-01-03T00:47:01.353Z,85.43
2018-01-03T00:48:01.327Z,85.91
2018-01-03T00:49:01.309Z,85.95
2018-01-03T00:50:01.284Z,85.66
2018-01-03T00:51:01.264Z,85.76
2018-01-03T00:52:01.245Z,85.86
2018-01-03T00:53:01.226Z,85.19
2018-01-03T00:54:01.202Z,85.57
2018-01-03T00:55:01.186Z,85.47
2018-01-03T00:56:01.162Z,85.00
2018-01-03T00:57:01.139Z,84.81
2018-01-03T00:58:01.123Z,84.81
2018-01-03T00:59:01.099Z,84.72
2018-01-03T01:00:01.080Z,84.81
2018-01-03T01:01:01.059Z,85.00
2018-01-03T01:02:01.040Z,84.43
2018-01-03T01:03:01.023Z,85.19
2018-01-03T01:04:00.999Z,85.00
2018-01-03T01:05:00.980Z,83.95
2018-01-03T01:06:00.964Z,84.62
2018-01-03T01:07:00.932Z,85.57
2018-01-03T01:08:00.916Z,85.10
2018-01-03T01:09:00.898Z,85.19
2018-01-03T01:10:00.871Z,84.33
2018-01-03T01:11:00.851Z,84.81
2018-01-03T01:12:00.832Z,84.81
2018-01-03T01:13:00.818Z,84.72
2018-01-03T01:14:00.788Z,85.28
2018-01-03T01:15:00.769Z,85.00
2018-01-03T01:16:00.749Z,85.19
2018-01-03T01:17:00.727Z,84.33
2018-01-03T01:18:00.707Z,84.43
2018-01-03T01:19:00.687Z,84.62
2018-01-03T01:20:00.673Z,84.91
2018-01-03T01:21:00.645Z,84.81
2018-01-03T01:22:00.627Z,84.62
2018-01-03T01:23:00.602Z,84.81
2018-01-03T01:24:00.586Z,85.28
2018-01-03T01:25:00.565Z,84.62
2018-01-03T01:26:00.542Z,85.00
2018-01-03T01:27:00.523Z,85.00
2018-01-03T01:28:00.509Z,85.10
2018-01-03T01:29:00.484Z,85.19
2018-01-03T01:30:00.459Z,85.10
2018-01-03T01:31:00.440Z,85.19
2018-01-03T01:32:00.420Z,85.19
2018-01-03T01:33:00.398Z,84.62
2018-01-03T01:34:00.379Z,84.24
2018-01-03T01:35:00.357Z,84.43
2018-01-03T01:36:00.339Z,84.52
2018-01-03T01:37:00.319Z,84.33
2018-01-03T01:38:00.297Z,84.24
2018-01-03T01:39:00.321Z,84.43
2018-01-03T01:40:00.257Z,84.24
2018-01-03T01:41:00.249Z,84.52
2018-01-03T01:42:00.219Z,84.24
2018-01-03T01:43:00.197Z,84.62
2018-01-03T01:44:00.180Z,85.10
2018-01-03T01:45:00.162Z,84.62
2018-01-03T01:46:00.134Z,84.24
2018-01-03T01:47:00.119Z,84.52
2018-01-03T01:48:00.095Z,85.00
2018-01-03T01:49:00.073Z,84.72
2018-01-03T01:50:00.070Z,84.33
2018-01-03T01:51:00.041Z,84.52
2018-01-03T01:52:00.012Z,84.43
2018-01-03T01:52:59.991Z,84.81
2018-01-03T01:53:59.971Z,84.62
2018-01-03T01:54:59.950Z,84.33
2018-01-03T01:55:59.931Z,84.72
2018-01-03T01:56:59.909Z,84.24
2018-01-03T01:57:59.893Z,84.72
2018-01-03T01:58:59.872Z,84.52
2018-01-03T01:59:59.859Z,84.52
2018-01-03T02:00:59.830Z,84.52
2018-01-03T02:01:59.807Z,84.52
2018-01-03T02:02:59.788Z,84.62
2018-01-03T02:03:59.769Z,84.52
2018-01-03T02:04:59.744Z,84.62
2018-01-03T02:05:59.725Z,84.43
2018-01-03T02:06:59.705Z,84.62
2018-01-03T02:07:59.684Z,84.66
2018-01-03T02:08:59.663Z,84.72
2018-01-03T02:09:59.648Z,84.24
2018-01-03T02:10:59.622Z,84.24
2018-01-03T02:11:59.602Z,84.24
2018-01-03T02:12:59.590Z,84.62
2018-01-03T02:13:59.563Z,84.24
2018-01-03T02:14:59.540Z,84.72
2018-01-03T02:15:59.531Z,84.81
2018-01-03T02:16:59.506Z,84.62
2018-01-03T02:17:59.530Z,84.72
2018-01-03T02:18:59.462Z,84.43
2018-01-03T02:19:59.441Z,85.38
2018-01-03T02:20:59.420Z,84.24
2018-01-03T02:21:59.400Z,84.33
2018-01-03T02:22:59.381Z,84.09
2018-01-03T02:23:59.360Z,84.09
2018-01-03T02:24:59.351Z,83.90
2018-01-03T02:25:59.318Z,84.05
2018-01-03T02:26:59.300Z,84.14
2018-01-03T02:27:59.280Z,84.00
2018-01-03T02:28:59.259Z,84.66
2018-01-03T02:29:59.289Z,84.24
2018-01-03T02:30:59.214Z,83.86
2018-01-03T02:31:59.203Z,83.90
2018-01-03T02:32:59.176Z,84.05
2018-01-03T02:33:59.209Z,83.95
2018-01-03T02:34:59.137Z,83.86
2018-01-03T02:35:59.172Z,84.00
2018-01-03T02:36:59.090Z,84.47
2018-01-03T02:37:59.074Z,84.28
2018-01-03T02:38:59.059Z,83.81
2018-01-03T02:39:59.129Z,84.56
2018-01-03T02:40:59.012Z,84.19
2018-01-03T02:41:59.090Z,84.28
2018-01-03T02:42:58.971Z,84.66
2018-01-03T02:43:58.962Z,84.09
2018-01-03T02:44:58.930Z,84.00
2018-01-03T02:45:58.967Z,84.09
2018-01-03T02:46:58.888Z,83.52
2018-01-03T02:47:58.877Z,84.00
2018-01-03T02:48:58.861Z,84.09
2018-01-03T02:49:58.878Z,84.09
2018-01-03T02:50:58.811Z,83.81
2018-01-03T02:51:58.891Z,83.33
2018-01-03T02:52:58.771Z,84.00
2018-01-03T02:53:58.812Z,84.09
2018-01-03T02:54:58.730Z,83.62
2018-01-03T02:55:58.811Z,83.33
2018-01-03T02:56:58.686Z,83.14
2018-01-03T02:57:58.670Z,83.90
2018-01-03T02:58:58.643Z,83.71
2018-01-03T02:59:58.630Z,83.90
2018-01-03T03:00:58.620Z,83.71
2018-01-03T03:01:58.630Z,84.09
2018-01-03T03:02:58.569Z,83.52
2018-01-03T03:03:58.647Z,83.52
2018-01-03T03:04:58.519Z,83.23
2018-01-03T03:05:58.500Z,83.33
2018-01-03T03:06:58.488Z,83.33
2018-01-03T03:07:58.465Z,83.52
2018-01-03T03:08:58.439Z,83.33
2018-01-03T03:09:58.427Z,83.23
2018-01-03T03:10:58.396Z,83.14
2018-01-03T03:11:58.381Z,83.33
2018-01-03T03:12:58.357Z,83.52
2018-01-03T03:13:58.338Z,83.42
2018-01-03T03:14:58.321Z,82.95
2018-01-03T03:15:58.300Z,83.33
2018-01-03T03:16:58.276Z,83.42
2018-01-03T03:17:58.256Z,83.42
2018-01-03T03:18:58.238Z,83.62
2018-01-03T03:19:58.232Z,83.23
2018-01-03T03:20:58.199Z,83.23
2018-01-03T03:21:58.178Z,83.33
2018-01-03T03:22:58.156Z,83.14
2018-01-03T03:23:58.143Z,83.23
2018-01-03T03:24:58.118Z,83.42
2018-01-03T03:25:58.091Z,83.62
2018-01-03T03:26:58.078Z,83.23
2018-01-03T03:27:58.053Z,83.42
2018-01-03T03:28:58.041Z,83.71
2018-01-03T03:29:58.020Z,83.42
2018-01-03T03:30:57.990Z,83.42
2018-01-03T03:31:57.978Z,83.33
2018-01-03T03:32:57.949Z,83.42
2018-01-03T03:33:57.927Z,83.52
2018-01-03T03:34:57.909Z,83.52
2018-01-03T03:35:57.890Z,83.71
2018-01-03T03:36:57.871Z,82.76
2018-01-03T03:37:57.850Z,83.71
2018-01-03T03:38:57.830Z,83.42
2018-01-03T03:39:57.810Z,83.81
2018-01-03T03:40:57.786Z,83.18
2018-01-03T03:41:57.770Z,83.65
2018-01-03T03:42:57.749Z,83.85
2018-01-03T03:43:57.733Z,83.47
2018-01-03T03:44:57.708Z,83.65
2018-01-03T03:45:57.689Z,84.13
2018-01-03T03:46:57.670Z,83.85
2018-01-03T03:47:57.656Z,83.56
2018-01-03T03:48:57.627Z,83.85
2018-01-03T03:49:57.606Z,84.52
2018-01-03T03:50:57.594Z,83.98
2018-01-03T03:51:57.571Z,83.94
2018-01-03T03:52:57.545Z,83.70
2018-01-03T03:53:57.528Z,84.36
2018-01-03T03:54:57.510Z,84.17
2018-01-03T03:55:57.491Z,83.89
2018-01-03T03:56:57.471Z,83.89
2018-01-03T03:57:57.453Z,84.08
2018-01-03T03:58:57.424Z,84.17
2018-01-03T03:59:57.408Z,83.61
2018-01-03T04:00:57.385Z,83.80
2018-01-03T04:01:57.368Z,82.93
2018-01-03T04:02:57.352Z,83.03
2018-01-03T04:03:57.332Z,82.93
2018-01-03T04:04:57.307Z,83.03
2018-01-03T04:05:57.289Z,82.46
2018-01-03T04:06:57.263Z,82.65
2018-01-03T04:07:57.360Z,82.84
2018-01-03T04:08:57.223Z,83.03
2018-01-03T04:09:57.216Z,82.65
2018-01-03T04:10:57.185Z,82.65
2018-01-03T04:11:57.166Z,82.93
2018-01-03T04:12:57.147Z,83.22
2018-01-03T04:13:57.127Z,83.13
2018-01-03T04:14:57.107Z,82.75
2018-01-03T04:15:57.087Z,82.65
2018-01-03T04:16:57.070Z,82.56
2018-01-03T04:17:57.055Z,82.65
2018-01-03T04:18:57.036Z,82.37
2018-01-03T04:19:57.008Z,82.75
2018-01-03T04:20:56.990Z,82.56
2018-01-03T04:21:56.970Z,82.56
2018-01-03T04:22:56.950Z,82.27
2018-01-03T04:23:56.929Z,82.56
2018-01-03T04:24:56.909Z,82.56
2018-01-03T04:25:56.886Z,82.37
2018-01-03T04:26:56.866Z,82.46
2018-01-03T04:27:56.846Z,82.46
2018-01-03T04:28:56.825Z,82.65
2018-01-03T04:29:56.817Z,82.46
2018-01-03T04:30:56.788Z,82.27
2018-01-03T04:31:56.769Z,82.93
2018-01-03T04:32:56.750Z,82.75
2018-01-03T04:33:56.740Z,82.56
2018-01-03T04:34:56.708Z,82.93
2018-01-03T04:35:56.693Z,87.84
2018-01-03T04:36:56.670Z,89.26
2018-01-03T04:37:56.659Z,88.70
2018-01-03T04:38:56.637Z,87.21
2018-01-03T04:39:56.617Z,87.21
2018-01-03T04:40:56.599Z,86.93
2018-01-03T04:41:56.579Z,86.51
2018-01-03T04:42:56.555Z,88.60
2018-01-03T04:43:56.534Z,88.79
2018-01-03T04:44:56.519Z,88.98
2018-01-03T04:45:56.495Z,90.12
2018-01-03T04:46:56.476Z,89.22
2018-01-03T04:47:56.456Z,88.74
2018-01-03T04:48:56.436Z,90.64
2018-01-03T04:49:56.417Z,89.98
2018-01-03T04:50:56.398Z,88.93
2018-01-03T04:51:56.381Z,88.74
2018-01-03T04:52:56.359Z,89.79
2018-01-03T04:53:56.340Z,88.93
2018-01-03T04:54:56.321Z,88.93
2018-01-03T04:55:56.300Z,89.12
2018-01-03T04:56:56.285Z,88.84
2018-01-03T04:57:56.263Z,89.03
2018-01-03T04:58:56.247Z,88.84
2018-01-03T04:59:56.225Z,89.31
2018-01-03T05:00:56.217Z,88.84
2018-01-03T05:01:56.187Z,88.45
2018-01-03T05:02:56.173Z,88.64
2018-01-03T05:03:56.151Z,88.26
2018-01-03T05:04:56.131Z,89.03
2018-01-03T05:05:56.110Z,88.26
2018-01-03T05:06:56.091Z,88.36
2018-01-03T05:07:56.073Z,88.17
2018-01-03T05:08:56.052Z,88.74
2018-01-03T05:09:56.036Z,88.07
2018-01-03T05:10:56.017Z,87.88
2018-01-03T05:11:55.996Z,88.45
2018-01-03T05:12:55.979Z,88.45
2018-01-03T05:13:55.957Z,88.26
2018-01-03T05:14:55.939Z,88.36
2018-01-03T05:15:56.174Z,88.17
2018-01-03T05:16:55.902Z,88.26
2018-01-03T05:17:55.886Z,88.36
2018-01-03T05:18:55.864Z,88.26
2018-01-03T05:19:55.847Z,87.98
2018-01-03T05:20:55.828Z,88.51
2018-01-03T05:21:55.809Z,87.98
2018-01-03T05:22:55.788Z,88.60
2018-01-03T05:23:55.778Z,88.41
2018-01-03T05:24:55.748Z,87.74
2018-01-03T05:25:55.736Z,87.84
2018-01-03T05:26:55.709Z,88.41
2018-01-03T05:27:55.697Z,87.65
2018-01-03T05:28:55.679Z,88.41
2018-01-03T05:29:55.658Z,88.03
2018-01-03T05:30:55.640Z,88.41
2018-01-03T05:31:55.620Z,87.74
2018-01-03T05:32:55.597Z,87.93
2018-01-03T05:33:55.582Z,87.84
2018-01-03T05:34:55.566Z,87.46
2018-01-03T05:35:55.547Z,87.84
2018-01-03T05:36:55.524Z,87.93
2018-01-03T05:37:55.525Z,87.65
2018-01-03T05:38:55.485Z,87.74
2018-01-03T05:39:55.477Z,87.65
2018-01-03T05:40:55.445Z,87.74
2018-01-03T05:41:55.430Z,87.74
2018-01-03T05:42:55.408Z,88.22
2018-01-03T05:43:55.518Z,87.74
2018-01-03T05:44:55.369Z,88.41
2018-01-03T05:45:55.360Z,88.79
2018-01-03T05:46:55.334Z,88.03
2018-01-03T05:47:55.383Z,88.31
2018-01-03T05:48:55.295Z,88.03
2018-01-03T05:49:55.277Z,87.65
2018-01-03T05:50:55.258Z,87.84
2018-01-03T05:51:55.243Z,87.84
2018-01-03T05:52:55.219Z,87.84
2018-01-03T05:53:55.209Z,88.70
2018-01-03T05:54:55.190Z,88.51
2018-01-03T05:55:55.174Z,88.12
2018-01-03T05:56:55.146Z,87.46
2018-01-03T05:57:55.126Z,88.79
2018-01-03T05:58:55.118Z,88.22
2018-01-03T05:59:55.087Z,88.98
2018-01-03T06:00:55.071Z,88.03
2018-01-03T06:01:55.049Z,88.98
2018-01-03T06:02:55.029Z,88.89
2018-01-03T06:03:55.015Z,89.26
2018-01-03T06:04:54.992Z,87.84
2018-01-03T06:05:54.979Z,89.07
2018-01-03T06:06:54.956Z,88.98
2018-01-03T06:07:54.941Z,88.89
2018-01-03T06:08:54.918Z,88.31
2018-01-03T06:09:54.894Z,88.98
2018-01-03T06:10:54.876Z,89.07
2018-01-03T06:11:54.858Z,89.26
2018-01-03T06:12:54.841Z,89.07
2018-01-03T06:13:54.819Z,89.36
2018-01-03T06:14:54.800Z,89.26
2018-01-03T06:15:54.786Z,88.51
2018-01-03T06:16:54.767Z,89.46
2018-01-03T06:17:54.742Z,89.07
2018-01-03T06:18:54.728Z,89.65
2018-01-03T06:19:54.706Z,89.26
2018-01-03T06:20:54.689Z,89.17
2018-01-03T06:21:54.670Z,89.55
2018-01-03T06:22:54.653Z,89.07
2018-01-03T06:23:54.629Z,89.46
2018-01-03T06:24:54.611Z,88.98
2018-01-03T06:25:54.599Z,89.46
2018-01-03T06:26:54.581Z,88.79
2018-01-03T06:27:54.560Z,89.46
2018-01-03T06:28:54.574Z,88.89
2018-01-03T06:29:54.517Z,89.46
2018-01-03T06:30:54.498Z,88.70
2018-01-03T06:31:54.480Z,89.46
2018-01-03T06:32:54.469Z,89.55
2018-01-03T06:33:54.439Z,89.46
2018-01-03T06:34:54.420Z,88.89
2018-01-03T06:35:54.402Z,89.07
2018-01-03T06:36:54.389Z,89.07
2018-01-03T06:37:54.371Z,88.79
2018-01-03T06:38:54.351Z,89.17
2018-01-03T06:39:54.327Z,89.17
2018-01-03T06:40:54.305Z,89.94
2018-01-03T06:41:54.289Z,89.17
2018-01-03T06:42:54.271Z,89.07
2018-01-03T06:43:54.256Z,89.07
2018-01-03T06:44:54.233Z,89.26
2018-01-03T06:45:54.227Z,89.75
2018-01-03T06:46:54.199Z,89.55
2018-01-03T06:47:54.175Z,89.36
2018-01-03T06:48:54.158Z,89.17
2018-01-03T06:49:54.138Z,88.79
2018-01-03T06:50:54.120Z,89.46
2018-01-03T06:51:54.220Z,89.26
2018-01-03T06:52:54.080Z,89.17
2018-01-03T06:53:54.064Z,90.03
2018-01-03T06:54:54.042Z,89.17
2018-01-03T06:55:54.030Z,89.17
2018-01-03T06:56:54.013Z,89.07
2018-01-03T06:57:54.025Z,89.46
2018-01-03T06:58:53.969Z,88.98
2018-01-03T06:59:53.976Z,89.07
2018-01-03T07:00:53.929Z,88.79
2018-01-03T07:01:53.921Z,89.94
2018-01-03T07:02:53.889Z,89.55
2018-01-03T07:03:53.878Z,88.60
2018-01-03T07:04:53.851Z,89.26
2018-01-03T07:05:53.841Z,89.17
2018-01-03T07:06:53.820Z,89.36
2018-01-03T07:07:53.799Z,90.03
2018-01-03T07:08:53.782Z,88.93
2018-01-03T07:09:53.753Z,88.65
2018-01-03T07:10:53.737Z,88.56
2018-01-03T07:11:53.843Z,89.07
2018-01-03T07:12:53.696Z,89.17
2018-01-03T07:13:53.678Z,88.51
2018-01-03T07:14:53.662Z,88.37
2018-01-03T07:15:53.778Z,89.03
2018-01-03T07:16:53.621Z,88.75
2018-01-03T07:17:53.609Z,88.08
2018-01-03T07:18:53.579Z,88.84
2018-01-03T07:19:53.565Z,88.75
2018-01-03T07:20:53.541Z,88.08
2018-01-03T07:21:53.527Z,87.98
2018-01-03T07:22:53.501Z,88.65
2018-01-03T07:23:53.612Z,88.18
2018-01-03T07:24:53.463Z,88.65
2018-01-03T07:25:53.444Z,88.84
2018-01-03T07:26:53.423Z,87.98
2018-01-03T07:27:53.478Z,88.08
2018-01-03T07:28:53.389Z,88.08
2018-01-03T07:29:53.369Z,88.93
2018-01-03T07:30:53.346Z,87.41
2018-01-03T07:31:53.339Z,88.56
2018-01-03T07:32:53.309Z,87.98
2018-01-03T07:33:53.286Z,87.60
2018-01-03T07:34:53.267Z,87.60
2018-01-03T07:35:53.249Z,87.70
2018-01-03T07:36:53.239Z,87.79
2018-01-03T07:37:53.212Z,87.32
2018-01-03T07:38:53.189Z,87.70
2018-01-03T07:39:53.178Z,86.75
2018-01-03T07:40:53.154Z,86.94
2018-01-03T07:41:53.133Z,86.32
2018-01-03T07:42:53.114Z,85.89
2018-01-03T07:43:53.097Z,85.89
2018-01-03T07:44:53.083Z,85.32
2018-01-03T07:45:53.060Z,85.32
2018-01-03T07:46:53.035Z,85.89
2018-01-03T07:47:53.017Z,85.22
2018-01-03T07:48:52.997Z,85.89
2018-01-03T07:49:52.984Z,86.46
2018-01-03T07:50:52.959Z,87.60
2018-01-03T07:51:52.937Z,87.75
2018-01-03T07:52:52.919Z,88.70
2018-01-03T07:53:52.900Z,87.94
2018-01-03T07:54:52.892Z,87.94
2018-01-03T07:55:52.871Z,88.23
2018-01-03T07:56:52.853Z,88.23
2018-01-03T07:57:52.819Z,88.04
2018-01-03T07:58:52.800Z,88.60
2018-01-03T07:59:52.783Z,87.94
2018-01-03T08:00:52.767Z,88.13
2018-01-03T08:01:52.742Z,87.85
2018-01-03T08:02:52.731Z,88.28
2018-01-03T08:03:52.704Z,88.94
2018-01-03T08:04:52.684Z,88.23
2018-01-03T08:05:52.664Z,88.89
2018-01-03T08:06:52.650Z,88.46
2018-01-03T08:07:52.624Z,87.80
2018-01-03T08:08:52.613Z,88.46
2018-01-03T08:09:52.592Z,88.85
2018-01-03T08:10:52.563Z,88.85
2018-01-03T08:11:52.547Z,89.61
2018-01-03T08:12:52.529Z,89.89
2018-01-03T08:13:52.508Z,89.23
2018-01-03T08:14:52.491Z,88.94
2018-01-03T08:15:52.467Z,88.37
2018-01-03T08:16:52.450Z,88.75
2018-01-03T08:17:52.433Z,89.32
2018-01-03T08:18:52.408Z,88.94
2018-01-03T08:19:52.390Z,89.00
2018-01-03T08:20:52.364Z,89.09
2018-01-03T08:21:52.349Z,88.66
2018-01-03T08:22:52.329Z,88.71
2018-01-03T08:23:52.311Z,89.51
2018-01-03T08:24:52.290Z,88.66
2018-01-03T08:25:52.277Z,88.52
2018-01-03T08:26:52.249Z,89.14
2018-01-03T08:27:52.231Z,87.90
2018-01-03T08:28:52.209Z,87.99
2018-01-03T08:29:52.186Z,89.85
2018-01-03T08:30:52.170Z,88.28
2018-01-03T08:31:52.146Z,87.32
2018-01-03T08:32:52.130Z,87.90
2018-01-03T08:33:52.108Z,88.28
2018-01-03T08:34:52.085Z,87.99
2018-01-03T08:35:52.062Z,87.90
2018-01-03T08:36:52.049Z,87.32
2018-01-03T08:37:52.026Z,86.70
2018-01-03T08:38:52.013Z,86.85
2018-01-03T08:39:51.988Z,86.76
2018-01-03T08:40:51.969Z,87.52
2018-01-03T08:41:51.952Z,87.32
2018-01-03T08:42:51.929Z,87.90
2018-01-03T08:43:51.909Z,87.80
2018-01-03T08:44:51.889Z,87.61
2018-01-03T08:45:51.869Z,88.09
2018-01-03T08:46:51.848Z,87.71
2018-01-03T08:47:51.832Z,87.61
2018-01-03T08:48:51.816Z,88.28
2018-01-03T08:49:51.798Z,87.71
2018-01-03T08:50:51.777Z,87.65
2018-01-03T08:51:51.759Z,86.13
2018-01-03T08:52:51.742Z,87.46
2018-01-03T08:53:51.713Z,86.70
2018-01-03T08:54:51.702Z,86.80
2018-01-03T08:55:51.678Z,87.04
2018-01-03T08:56:51.661Z,87.99
2018-01-03T08:57:51.636Z,88.09
2018-01-03T08:58:51.621Z,88.85
2018-01-03T08:59:51.609Z,87.90
2018-01-03T09:00:51.581Z,87.99
2018-01-03T09:01:51.565Z,88.75
2018-01-03T09:02:51.540Z,88.66
2018-01-03T09:03:51.523Z,88.56
2018-01-03T09:04:51.510Z,88.56
2018-01-03T09:05:51.485Z,87.71
2018-01-03T09:06:51.475Z,88.46
2018-01-03T09:07:51.448Z,88.94
2018-01-03T09:08:51.438Z,87.71
2018-01-03T09:09:51.404Z,87.23
2018-01-03T09:10:51.389Z,87.90
2018-01-03T09:11:51.402Z,87.90
2018-01-03T09:12:51.348Z,87.99
2018-01-03T09:13:51.330Z,88.37
2018-01-03T09:14:51.310Z,88.85
2018-01-03T09:15:51.295Z,88.66
2018-01-03T09:16:51.271Z,88.70
2018-01-03T09:17:51.249Z,88.13
2018-01-03T09:18:51.231Z,87.18
2018-01-03T09:19:51.217Z,87.61
2018-01-03T09:20:51.198Z,87.80
2018-01-03T09:21:51.176Z,87.80
2018-01-03T09:22:51.159Z,88.56
2018-01-03T09:23:51.143Z,88.66
2018-01-03T09:24:51.119Z,87.99
2018-01-03T09:25:51.099Z,88.75
2018-01-03T09:26:51.081Z,87.61
2018-01-03T09:27:51.068Z,87.80
2018-01-03T09:28:51.044Z,87.90
2018-01-03T09:29:51.019Z,88.46
2018-01-03T09:30:51.003Z,87.99
2018-01-03T09:31:50.983Z,88.09
2018-01-03T09:32:50.964Z,87.90
2018-01-03T09:33:50.944Z,87.90
2018-01-03T09:34:50.926Z,87.80
2018-01-03T09:35:50.909Z,87.80
2018-01-03T09:36:50.889Z,87.32
2018-01-03T09:37:50.878Z,87.80
2018-01-03T09:38:50.847Z,87.80
2018-01-03T09:39:50.833Z,87.61
2018-01-03T09:40:50.807Z,87.52
2018-01-03T09:41:50.790Z,87.61
2018-01-03T09:42:50.767Z,87.32
2018-01-03T09:43:50.750Z,87.04
2018-01-03T09:44:50.737Z,87.61
2018-01-03T09:45:50.710Z,87.18
2018-01-03T09:46:50.696Z,86.32
2018-01-03T09:47:50.676Z,86.90
2018-01-03T09:48:50.658Z,86.04
2018-01-03T09:49:50.633Z,86.99
2018-01-03T09:50:50.620Z,86.61
2018-01-03T09:51:50.593Z,86.04
2018-01-03T09:52:50.576Z,85.94
2018-01-03T09:53:50.602Z,86.13
2018-01-03T09:54:50.539Z,86.70
2018-01-03T09:55:50.525Z,86.22
2018-01-03T09:56:50.500Z,86.70
2018-01-03T09:57:50.481Z,85.85
2018-01-03T09:58:50.470Z,86.18
2018-01-03T09:59:50.446Z,85.47
2018-01-03T10:00:50.425Z,84.99
2018-01-03T10:01:50.410Z,85.85
2018-01-03T10:02:50.385Z,86.22
2018-01-03T10:03:50.371Z,86.32
2018-01-03T10:04:50.349Z,86.42
2018-01-03T10:05:50.340Z,85.85
2018-01-03T10:06:50.313Z,86.90
2018-01-03T10:07:50.290Z,85.80
2018-01-03T10:08:50.281Z,85.94
2018-01-03T10:09:50.257Z,86.32
2018-01-03T10:10:50.237Z,86.70
2018-01-03T10:11:50.221Z,86.04
2018-01-03T10:12:50.202Z,85.56
2018-01-03T10:13:50.177Z,85.94
2018-01-03T10:14:50.161Z,85.66
2018-01-03T10:15:50.141Z,85.08
2018-01-03T10:16:50.123Z,84.52
2018-01-03T10:17:50.097Z,84.84
2018-01-03T10:18:50.084Z,84.94
2018-01-03T10:19:50.059Z,84.42
2018-01-03T10:20:50.050Z,83.75
2018-01-03T10:21:50.022Z,85.08
2018-01-03T10:22:50.000Z,84.42
2018-01-03T10:23:49.994Z,85.18
2018-01-03T10:24:49.975Z,85.18
2018-01-03T10:25:49.952Z,84.80
2018-01-03T10:26:49.931Z,84.42
2018-01-03T10:27:49.910Z,84.33
2018-01-03T10:28:49.893Z,84.80
2018-01-03T10:29:49.868Z,84.13
2018-01-03T10:30:49.851Z,84.80
2018-01-03T10:31:49.844Z,84.80
2018-01-03T10:32:49.811Z,84.42
2018-01-03T10:33:49.794Z,84.89
2018-01-03T10:34:49.771Z,85.28
2018-01-03T10:35:49.755Z,84.89
2018-01-03T10:36:49.740Z,85.08
2018-01-03T10:37:49.723Z,85.08
2018-01-03T10:38:49.694Z,84.80
2018-01-03T10:39:49.679Z,85.66
2018-01-03T10:40:49.657Z,84.80
2018-01-03T10:41:49.639Z,84.61
2018-01-03T10:42:49.621Z,84.89
2018-01-03T10:43:49.594Z,84.23
2018-01-03T10:44:49.580Z,84.23
2018-01-03T10:45:49.556Z,84.42
2018-01-03T10:46:49.543Z,84.89
2018-01-03T10:47:49.521Z,85.18
2018-01-03T10:48:49.500Z,84.99
2018-01-03T10:49:49.482Z,85.18
2018-01-03T10:50:49.460Z,85.08
2018-01-03T10:51:49.450Z,85.08
2018-01-03T10:52:49.423Z,85.71
2018-01-03T10:53:49.404Z,85.99
2018-01-03T10:54:49.379Z,86.18
2018-01-03T10:55:49.365Z,85.99
2018-01-03T10:56:49.339Z,86.94
2018-01-03T10:57:49.323Z,87.23
2018-01-03T10:58:49.300Z,87.71
2018-01-03T10:59:49.291Z,87.99
2018-01-03T11:00:49.262Z,88.09
2018-01-03T11:01:49.244Z,88.18
2018-01-03T11:02:49.230Z,88.66
2018-01-03T11:03:49.213Z,88.18
2018-01-03T11:04:49.193Z,89.04
2018-01-03T11:05:49.170Z,87.85
2018-01-03T11:06:49.153Z,88.80
2018-01-03T11:07:49.132Z,89.37
2018-01-03T11:08:49.112Z,89.56
2018-01-03T11:09:49.092Z,89.28
2018-01-03T11:10:49.071Z,89.47
2018-01-03T11:11:49.049Z,89.09
2018-01-03T11:12:49.023Z,89.09
2018-01-03T11:13:49.001Z,89.66
2018-01-03T11:14:48.981Z,88.80
2018-01-03T11:15:48.965Z,89.56
2018-01-03T11:16:48.942Z,89.47
2018-01-03T11:17:48.922Z,90.04
2018-01-03T11:18:48.900Z,89.56
2018-01-03T11:19:48.880Z,89.23
2018-01-03T11:20:48.862Z,89.23
2018-01-03T11:21:48.839Z,89.47
2018-01-03T11:22:48.819Z,89.18
2018-01-03T11:23:48.801Z,90.09
2018-01-03T11:24:48.777Z,89.71
2018-01-03T11:25:48.759Z,89.23
2018-01-03T11:26:48.738Z,89.52
2018-01-03T11:27:48.721Z,89.23
2018-01-03T11:28:48.712Z,90.09
2018-01-03T11:29:48.677Z,89.90
2018-01-03T11:30:48.657Z,89.90
2018-01-03T11:31:48.663Z,90.19
2018-01-03T11:32:48.622Z,90.28
2018-01-03T11:33:48.602Z,90.09
2018-01-03T11:34:48.581Z,89.23
2018-01-03T11:35:48.555Z,89.33
2018-01-03T11:36:48.539Z,89.33
2018-01-03T11:37:48.515Z,89.33
2018-01-03T11:38:48.490Z,89.33
2018-01-03T11:39:48.467Z,89.52
2018-01-03T11:40:48.450Z,89.52
2018-01-03T11:41:48.428Z,89.14
2018-01-03T11:42:48.409Z,88.85
2018-01-03T11:43:48.389Z,89.61
2018-01-03T11:44:48.363Z,89.71
2018-01-03T11:45:48.359Z,89.71
2018-01-03T11:46:48.328Z,88.38
2018-01-03T11:47:48.309Z,89.23
2018-01-03T11:48:48.290Z,89.04
2018-01-03T11:49:48.268Z,89.71
2018-01-03T11:50:48.243Z,89.71
2018-01-03T11:51:48.219Z,89.61
2018-01-03T11:52:48.200Z,89.61
2018-01-03T11:53:48.185Z,89.04
2018-01-03T11:54:48.168Z,89.71
2018-01-03T11:55:48.147Z,89.42
2018-01-03T11:56:48.120Z,88.76
2018-01-03T11:57:48.100Z,88.95
2018-01-03T11:58:48.081Z,89.71
2018-01-03T11:59:48.055Z,88.47
2018-01-03T12:00:48.041Z,89.42
2018-01-03T12:01:48.010Z,89.52
2018-01-03T12:02:48.002Z,88.76
2018-01-03T12:03:47.972Z,89.14
2018-01-03T12:04:47.953Z,89.14
2018-01-03T12:05:47.930Z,89.23
2018-01-03T12:06:47.915Z,89.42
2018-01-03T12:07:47.891Z,89.61
2018-01-03T12:08:47.876Z,89.52
2018-01-03T12:09:47.853Z,88.95
2018-01-03T12:10:47.822Z,89.71
2018-01-03T12:11:47.804Z,88.67
2018-01-03T12:12:47.783Z,88.85
2018-01-03T12:13:47.763Z,88.85
2018-01-03T12:14:47.757Z,88.57
2018-01-03T12:15:47.721Z,89.71
2018-01-03T12:16:47.696Z,89.42
2018-01-03T12:17:47.679Z,89.23
2018-01-03T12:18:47.655Z,89.52
2018-01-03T12:19:47.638Z,89.33
2018-01-03T12:20:47.626Z,89.52
2018-01-03T12:21:47.590Z,88.57
2018-01-03T12:22:47.571Z,89.33
2018-01-03T12:23:47.550Z,89.23
2018-01-03T12:24:47.530Z,89.52
2018-01-03T12:25:47.513Z,88.57
2018-01-03T12:26:47.490Z,89.42
2018-01-03T12:27:47.464Z,89.42
2018-01-03T12:28:47.450Z,88.85
2018-01-03T12:29:47.432Z,88.85
2018-01-03T12:30:47.399Z,89.80
2018-01-03T12:31:47.412Z,90.37
2018-01-03T12:32:47.359Z,89.52
2018-01-03T12:33:47.341Z,88.95
2018-01-03T12:34:47.321Z,89.80
2018-01-03T12:35:47.296Z,89.90
2018-01-03T12:36:47.278Z,89.61
2018-01-03T12:37:47.249Z,88.85
2018-01-03T12:38:47.240Z,89.71
2018-01-03T12:39:47.209Z,89.52
2018-01-03T12:40:47.189Z,88.67
2018-01-03T12:41:47.170Z,89.52
2018-01-03T12:42:47.149Z,89.33
2018-01-03T12:43:47.129Z,89.52
2018-01-03T12:44:47.109Z,88.95
2018-01-03T12:45:47.090Z,89.61
2018-01-03T12:46:47.060Z,89.04
2018-01-03T12:47:47.038Z,89.52
2018-01-03T12:48:47.021Z,89.71
2018-01-03T12:49:47.001Z,89.52
2018-01-03T12:50:46.981Z,89.71
2018-01-03T12:51:46.959Z,89.71